Time;durP1;ratioP1;P1;durP2;ratioP2;P2;SDS_P1;SDS_P2;PMS_P1;PMS_P2;Temp;Humidity;BMP_temperature;BMP_pressure;BME280_temperature;BME280_humidity;BME280_pressure;Samples;Min_cycle;Max_cycle;Signal;HPM_P1;HPM_P2
2021/09/14 00:01:02;;;;;;;1.43;1.33;;;;;;;;;;4476474;28;20037;-62
2021/09/14 00:03:12;;;;;;;1.50;1.40;;;;;;;;;;4475950;28;20045;-61
2021/09/14 00:05:22;;;;;;;2.30;1.63;;;;;;;;;;4477606;28;20046;-61
2021/09/14 00:07:33;;;;;;;2.00;1.43;;;;;;;;;;4476765;28;20039;-61
2021/09/14 00:09:43;;;;;;;1.43;1.30;;;;;;;;;;4475949;28;20047;-61
2021/09/14 00:11:54;;;;;;;1.70;1.60;;;;;;;;;;4475895;28;32888;-62
2021/09/14 00:14:04;;;;;;;2.00;1.50;;;;;;;;;;4478627;28;20294;-60
2021/09/14 00:16:15;;;;;;;2.13;1.77;;;;;;;;;;4468630;28;20037;-60
2021/09/14 00:18:25;;;;;;;1.70;1.40;;;;;;;;;;4477310;28;20109;-61
2021/09/14 00:20:35;;;;;;;2.37;1.70;;;;;;;;;;4475826;28;21040;-61
2021/09/14 00:22:46;;;;;;;1.87;1.60;;;;;;;;;;4479931;28;20587;-61
2021/09/14 00:24:56;;;;;;;1.93;1.70;;;;;;;;;;4477408;28;20130;-60
2021/09/14 00:27:07;;;;;;;1.47;1.37;;;;;;;;;;4479287;28;29574;-61
2021/09/14 00:29:17;;;;;;;1.83;1.60;;;;;;;;;;4478176;28;20039;-61
2021/09/14 00:31:28;;;;;;;1.87;1.40;;;;;;;;;;4478776;28;20487;-61
2021/09/14 00:33:39;;;;;;;1.90;1.48;;;;;;;;;;4458684;28;20028;-62
2021/09/14 00:35:49;;;;;;;1.50;1.40;;;;;;;;;;4476136;28;20035;-61
2021/09/14 00:37:59;;;;;;;1.60;1.43;;;;;;;;;;4477508;28;20026;-60
2021/09/14 00:40:11;;;;;;;2.00;1.40;;;;;;;;;;4477827;28;20041;-61
2021/09/14 00:42:21;;;;;;;3.05;1.90;;;;;;;;;;4477876;28;20216;-60
2021/09/14 00:44:32;;;;;;;1.70;1.60;;;;;;;;;;4478383;28;20181;-61
2021/09/14 00:46:42;;;;;;;1.63;1.53;;;;;;;;;;4468737;28;20038;-61
2021/09/14 00:48:53;;;;;;;2.60;1.70;;;;;;;;;;4469081;28;20065;-61
2021/09/14 00:51:03;;;;;;;2.33;1.70;;;;;;;;;;4476163;28;20042;-62
2021/09/14 00:53:15;;;;;;;1.60;1.50;;;;;;;;;;4479310;28;20038;-61
2021/09/14 00:55:25;;;;;;;;;;;;;;;;;;4471471;28;20086;-61
2021/09/14 00:57:36;;;;;;;1.60;1.50;;;;;;;;;;4475935;28;19986;-61
2021/09/14 00:59:46;;;;;;;1.77;1.40;;;;;;;;;;4477529;28;20030;-61
2021/09/14 01:01:57;;;;;;;2.67;1.57;;;;;;;;;;4474729;28;20038;-61
2021/09/14 01:04:08;;;;;;;2.17;1.50;;;;;;;;;;4478127;28;20906;-61
2021/09/14 01:06:18;;;;;;;1.70;1.40;;;;;;;;;;4476468;28;20054;-61
2021/09/14 01:08:30;;;;;;;1.53;1.30;;;;;;;;;;4479556;28;20035;-61
2021/09/14 01:10:43;;;;;;;2.75;1.50;;;;;;;;;;4467980;28;20114;-61
2021/09/14 01:12:53;;;;;;;2.60;1.58;;;;;;;;;;4477636;28;20870;-61
2021/09/14 01:15:04;;;;;;;1.57;1.40;;;;;;;;;;4476547;28;20113;-61
2021/09/14 01:17:14;;;;;;;1.48;1.30;;;;;;;;;;4476687;28;20566;-61
2021/09/14 01:19:26;;;;;;;1.33;1.20;;;;;;;;;;4467682;28;20134;-61
2021/09/14 01:21:38;;;;;;;2.00;1.47;;;;;;;;;;4478170;28;20488;-62
2021/09/14 01:23:49;;;;;;;1.70;1.30;;;;;;;;;;4459033;28;20023;-61
2021/09/14 01:25:59;;;;;;;1.50;1.40;;;;;;;;;;4477758;28;20038;-61
2021/09/14 01:28:11;;;;;;;1.73;1.20;;;;;;;;;;4478208;28;20157;-61
2021/09/14 01:30:23;;;;;;;1.40;1.30;;;;;;;;;;4475548;28;20109;-61
2021/09/14 01:32:34;;;;;;;2.42;1.83;;;;;;;;;;4473794;28;20042;-61
2021/09/14 01:34:46;;;;;;;1.50;1.40;;;;;;;;;;4475748;28;20038;-61
2021/09/14 01:36:56;;;;;;;2.63;1.60;;;;;;;;;;4461876;28;20154;-61
2021/09/14 01:39:07;;;;;;;2.00;1.30;;;;;;;;;;4461773;28;20095;-61
2021/09/14 01:41:18;;;;;;;1.65;1.40;;;;;;;;;;4475131;28;20114;-61
2021/09/14 01:43:29;;;;;;;1.55;1.40;;;;;;;;;;4475689;28;20866;-61
2021/09/14 01:45:40;;;;;;;2.40;1.40;;;;;;;;;;4477213;28;20046;-61
2021/09/14 01:47:54;;;;;;;2.10;1.50;;;;;;;;;;4462796;28;20027;-61
2021/09/14 01:50:08;;;;;;;2.90;1.25;;;;;;;;;;4474376;28;20089;-60
2021/09/14 01:52:19;;;;;;;1.85;1.50;;;;;;;;;;4468601;28;20031;-61
2021/09/14 01:54:29;;;;;;;1.70;1.60;;;;;;;;;;4474869;28;20027;-61
2021/09/14 01:56:40;;;;;;;1.50;1.17;;;;;;;;;;4474669;28;20392;-61
2021/09/14 01:58:52;;;;;;;1.60;1.50;;;;;;;;;;4475547;28;20097;-61
2021/09/14 02:01:19;;;;;;;;;;;;;;;;;;4475639;28;20031;-60
2021/09/14 03:00:11;;;;;;;1.80;1.20;;;;;;;;;;4474045;28;20559;-61
2021/09/14 03:02:22;;;;;;;1.48;1.30;;;;;;;;;;4473827;28;20122;-61
2021/09/14 03:04:34;;;;;;;1.55;1.35;;;;;;;;;;4451429;28;20134;-61
2021/09/14 03:06:44;;;;;;;1.33;1.23;;;;;;;;;;4475416;28;20117;-61
2021/09/14 03:09:09;;;;;;;1.35;1.25;;;;;;;;;;4470553;28;20570;-62
2021/09/14 03:11:20;;;;;;;1.83;1.40;;;;;;;;;;4476300;28;20079;-61
2021/09/14 03:13:42;;;;;;;1.65;1.23;;;;;;;;;;4473743;28;20662;-61
2021/09/14 03:15:52;;;;;;;1.30;1.20;;;;;;;;;;4475467;28;20046;-61
2021/09/14 03:18:02;;;;;;;1.70;1.23;;;;;;;;;;4461198;28;20050;-60
2021/09/14 03:20:14;;;;;;;1.67;1.35;;;;;;;;;;4472866;28;20081;-61
2021/09/14 03:22:24;;;;;;;2.03;1.30;;;;;;;;;;4473530;28;20053;-60
2021/09/14 03:24:34;;;;;;;1.57;1.30;;;;;;;;;;4476054;28;20067;-61
2021/09/14 03:26:46;;;;;;;1.95;1.02;;;;;;;;;;4474574;28;20050;-61
2021/09/14 03:28:57;;;;;;;2.70;1.47;;;;;;;;;;4474256;28;20031;-61
2021/09/14 03:31:08;;;;;;;1.63;1.30;;;;;;;;;;4458588;28;20654;-60
2021/09/14 03:33:20;;;;;;;2.95;1.50;;;;;;;;;;4468062;28;20053;-60
2021/09/14 03:35:31;;;;;;;1.92;1.45;;;;;;;;;;4478375;28;20027;-60
2021/09/14 03:37:42;;;;;;;1.47;1.30;;;;;;;;;;4477323;28;20035;-61
2021/09/14 03:39:52;;;;;;;1.47;1.37;;;;;;;;;;4462978;28;20046;-61
2021/09/14 03:42:03;;;;;;;2.30;1.33;;;;;;;;;;4480113;28;20035;-60
2021/09/14 03:44:13;;;;;;;1.83;1.40;;;;;;;;;;4478420;28;20046;-60
2021/09/14 03:46:24;;;;;;;1.60;1.20;;;;;;;;;;4476267;28;20130;-61
2021/09/14 03:48:35;;;;;;;1.27;1.17;;;;;;;;;;4477028;28;20080;-60
2021/09/14 03:50:47;;;;;;;;;;;;;;;;;;4475567;28;20045;-60
2021/09/14 03:52:57;;;;;;;1.50;1.40;;;;;;;;;;4477562;28;19924;-60
2021/09/14 03:55:09;;;;;;;1.60;1.20;;;;;;;;;;4477298;28;20031;-60
2021/09/14 03:57:23;;;;;;;2.15;1.30;;;;;;;;;;4453604;28;20039;-60
2021/09/14 03:59:39;;;;;;;1.50;1.30;;;;;;;;;;4460211;28;20039;-60
2021/09/14 04:01:52;;;;;;;1.45;1.35;;;;;;;;;;4476332;28;20161;-60
2021/09/14 04:04:24;;;;;;;1.27;1.17;;;;;;;;;;4475843;28;20754;-60
2021/09/14 04:08:52;;;;;;;1.52;1.30;;;;;;;;;;4476805;28;20725;-59
2021/09/14 04:11:07;;;;;;;1.20;1.10;;;;;;;;;;4449477;28;20738;-60
2021/09/14 04:13:17;;;;;;;1.47;1.20;;;;;;;;;;4475533;28;20041;-60
2021/09/14 04:15:28;;;;;;;1.67;1.30;;;;;;;;;;4474876;28;20042;-60
2021/09/14 04:17:39;;;;;;;1.40;1.30;;;;;;;;;;4458252;28;20116;-61
2021/09/14 04:19:50;;;;;;;2.63;1.60;;;;;;;;;;4475584;28;20035;-61
2021/09/14 04:22:01;;;;;;;1.63;1.50;;;;;;;;;;4476104;28;20105;-61
2021/09/14 04:24:16;;;;;;;1.67;1.30;;;;;;;;;;4476207;28;20112;-60
2021/09/14 04:26:27;;;;;;;2.33;1.40;;;;;;;;;;4476839;28;20046;-61
2021/09/14 04:28:38;;;;;;;2.15;1.33;;;;;;;;;;4464085;28;20035;-60
2021/09/14 04:30:48;;;;;;;3.20;1.60;;;;;;;;;;4477268;28;20085;-60
2021/09/14 04:32:59;;;;;;;1.60;1.30;;;;;;;;;;4475650;28;20094;-61
2021/09/14 04:35:10;;;;;;;2.27;1.60;;;;;;;;;;4474981;28;20413;-61
2021/09/14 04:37:20;;;;;;;2.20;1.23;;;;;;;;;;4477407;28;20130;-60
2021/09/14 04:39:31;;;;;;;2.13;1.50;;;;;;;;;;4475424;28;20047;-60
2021/09/14 04:41:42;;;;;;;1.77;1.45;;;;;;;;;;4468943;28;20039;-60
2021/09/14 04:43:53;;;;;;;2.43;1.40;;;;;;;;;;4464541;28;20039;-60
2021/09/14 04:46:04;;;;;;;1.63;1.37;;;;;;;;;;4476702;28;20096;-60
2021/09/14 04:48:17;;;;;;;1.77;1.38;;;;;;;;;;4476459;28;20066;-60
2021/09/14 04:50:27;;;;;;;;;;;;;;;;;;4476895;28;20037;-60
2021/09/14 04:52:38;;;;;;;1.38;1.27;;;;;;;;;;4478134;28;19925;-60
2021/09/14 04:54:49;;;;;;;1.63;1.30;;;;;;;;;;4478200;28;20031;-60
2021/09/14 04:57:00;;;;;;;1.70;1.30;;;;;;;;;;4475535;28;20621;-61
2021/09/14 04:59:11;;;;;;;1.42;1.10;;;;;;;;;;4475141;28;20039;-60
2021/09/14 05:01:22;;;;;;;1.70;1.37;;;;;;;;;;4476111;28;20551;-60
2021/09/14 05:03:33;;;;;;;1.57;1.30;;;;;;;;;;4469495;28;20026;-60
2021/09/14 05:05:43;;;;;;;1.58;1.30;;;;;;;;;;4476238;28;20071;-60
2021/09/14 05:07:56;;;;;;;2.05;1.50;;;;;;;;;;4473581;28;20034;-60
2021/09/14 05:10:09;;;;;;;2.17;1.50;;;;;;;;;;4474648;28;20033;-61
2021/09/14 05:12:24;;;;;;;2.13;1.65;;;;;;;;;;4468103;28;20031;-60
2021/09/14 05:14:35;;;;;;;1.93;1.70;;;;;;;;;;4474226;28;20928;-60
2021/09/14 05:16:56;;;;;;;1.38;1.10;;;;;;;;;;4476017;28;20254;-61
2021/09/14 05:19:33;;;;;;;2.75;1.50;;;;;;;;;;4467760;28;20741;-61
2021/09/14 05:21:46;;;;;;;2.05;1.60;;;;;;;;;;4475639;28;20045;-60
2021/09/14 05:23:56;;;;;;;1.88;1.50;;;;;;;;;;4474309;28;21107;-61
2021/09/14 05:26:09;;;;;;;;;;;;;;;;;;4477287;28;20045;-61
2021/09/14 05:28:19;;;;;;;1.58;1.45;;;;;;;;;;4476535;28;20433;-61
2021/09/14 05:30:30;;;;;;;1.33;1.20;;;;;;;;;;4475519;28;20084;-61
2021/09/14 05:32:40;;;;;;;1.77;1.40;;;;;;;;;;4473044;28;20069;-61
2021/09/14 05:34:51;;;;;;;1.20;1.10;;;;;;;;;;4473949;28;20130;-61
2021/09/14 05:37:03;;;;;;;1.70;1.30;;;;;;;;;;4474900;28;20795;-61
2021/09/14 05:39:18;;;;;;;1.60;1.30;;;;;;;;;;4457806;28;21269;-61
2021/09/14 05:41:29;;;;;;;1.33;1.15;;;;;;;;;;4474323;28;20022;-61
2021/09/14 05:43:40;;;;;;;1.67;1.17;;;;;;;;;;4475347;28;20161;-61
2021/09/14 05:45:50;;;;;;;1.33;1.20;;;;;;;;;;4472982;28;20050;-61
2021/09/14 05:48:02;;;;;;;2.10;1.45;;;;;;;;;;4474681;28;20042;-60
2021/09/14 05:50:18;;;;;;;1.70;1.20;;;;;;;;;;4457573;28;20087;-61
2021/09/14 05:52:29;;;;;;;2.08;1.35;;;;;;;;;;4473870;28;20039;-61
2021/09/14 05:54:39;;;;;;;1.90;1.50;;;;;;;;;;4475123;28;20421;-61
2021/09/14 05:56:50;;;;;;;2.37;1.50;;;;;;;;;;4446105;28;20107;-61
2021/09/14 05:59:01;;;;;;;1.70;1.23;;;;;;;;;;4473604;28;20034;-61
2021/09/14 06:01:13;;;;;;;2.47;1.58;;;;;;;;;;4474884;28;20037;-60
2021/09/14 06:03:23;;;;;;;2.00;1.38;;;;;;;;;;4473402;28;20042;-61
2021/09/14 06:05:34;;;;;;;2.93;1.53;;;;;;;;;;4472871;28;20047;-61
2021/09/14 06:07:45;;;;;;;2.40;1.47;;;;;;;;;;4474770;28;20312;-61
2021/09/14 06:09:56;;;;;;;1.67;1.58;;;;;;;;;;4474705;28;20039;-61
2021/09/14 06:12:07;;;;;;;2.22;1.52;;;;;;;;;;4473680;28;20547;-60
2021/09/14 06:14:19;;;;;;;2.58;1.45;;;;;;;;;;4473551;28;20051;-61
2021/09/14 06:16:30;;;;;;;1.43;1.23;;;;;;;;;;4473255;28;20066;-61
2021/09/14 06:18:41;;;;;;;;;;;;;;;;;;4470425;28;20602;-60
2021/09/14 06:20:51;;;;;;;2.72;1.75;;;;;;;;;;4473578;28;19948;-60
2021/09/14 06:23:03;;;;;;;2.85;1.60;;;;;;;;;;4473640;28;20046;-60
2021/09/14 06:25:14;;;;;;;2.10;1.63;;;;;;;;;;4473888;28;20542;-60
2021/09/14 06:27:26;;;;;;;2.00;1.80;;;;;;;;;;4475178;28;20030;-60
2021/09/14 06:29:38;;;;;;;2.67;2.00;;;;;;;;;;4474196;28;20650;-60
2021/09/14 06:31:55;;;;;;;2.13;1.80;;;;;;;;;;4473311;28;21094;-60
2021/09/14 06:34:35;;;;;;;2.20;2.00;;;;;;;;;;4475137;28;20575;-60
2021/09/14 06:36:45;;;;;;;;;;;;;;;;;;4473269;28;20035;-61
2021/09/14 06:38:56;;;;;;;2.10;1.90;;;;;;;;;;4473052;28;19954;-60
2021/09/14 06:41:07;;;;;;;2.55;2.00;;;;;;;;;;4473835;28;20030;-61
2021/09/14 06:43:21;;;;;;;2.40;2.00;;;;;;;;;;4467754;28;20046;-61
2021/09/14 06:45:50;;;;;;;2.70;2.08;;;;;;;;;;4473181;28;20043;-60
2021/09/14 06:48:14;;;;;;;3.47;1.95;;;;;;;;;;4473946;28;20682;-61
2021/09/14 06:50:24;;;;;;;3.70;2.00;;;;;;;;;;4475211;28;20038;-61
2021/09/14 06:52:34;;;;;;;2.60;1.90;;;;;;;;;;4457270;28;20030;-60
2021/09/14 06:54:45;;;;;;;2.87;1.93;;;;;;;;;;4475153;28;20034;-61
2021/09/14 06:56:55;;;;;;;1.90;1.70;;;;;;;;;;4476051;28;20433;-60
2021/09/14 06:59:06;;;;;;;3.20;1.90;;;;;;;;;;4475640;28;20902;-60
2021/09/14 07:01:18;;;;;;;3.17;1.90;;;;;;;;;;4460277;28;20110;-61
2021/09/14 07:03:28;;;;;;;3.25;2.22;;;;;;;;;;4458477;28;20118;-61
2021/09/14 07:05:39;;;;;;;2.87;2.10;;;;;;;;;;4473821;28;20059;-60
2021/09/14 07:07:50;;;;;;;3.13;1.97;;;;;;;;;;4475122;28;20101;-61
2021/09/14 07:10:03;;;;;;;2.33;2.03;;;;;;;;;;4474059;28;20265;-60
2021/09/14 07:12:14;;;;;;;3.03;2.20;;;;;;;;;;4475936;28;20040;-61
2021/09/14 07:14:24;;;;;;;2.37;2.00;;;;;;;;;;4474668;28;20041;-61
2021/09/14 07:16:34;;;;;;;2.83;2.10;;;;;;;;;;4474205;28;20499;-61
2021/09/14 07:18:46;;;;;;;2.77;2.10;;;;;;;;;;4473463;28;20041;-60
2021/09/14 07:20:57;;;;;;;2.47;2.10;;;;;;;;;;4475393;28;20125;-60
2021/09/14 07:23:08;;;;;;;3.17;2.20;;;;;;;;;;4464147;28;20126;-60
2021/09/14 07:25:18;;;;;;;2.63;2.20;;;;;;;;;;4474467;28;20052;-61
2021/09/14 07:27:29;;;;;;;2.60;2.23;;;;;;;;;;4460953;28;23875;-60
2021/09/14 07:29:39;;;;;;;3.27;2.20;;;;;;;;;;4472596;28;20400;-61
2021/09/14 07:31:50;;;;;;;3.20;2.23;;;;;;;;;;4474976;28;20041;-61
2021/09/14 07:34:01;;;;;;;2.53;2.28;;;;;;;;;;4476168;28;20046;-60
2021/09/14 07:36:11;;;;;;;2.13;1.90;;;;;;;;;;4475859;28;20034;-60
2021/09/14 07:38:22;;;;;;;4.00;2.40;;;;;;;;;;4474470;28;20050;-60
2021/09/14 07:40:32;;;;;;;4.10;2.13;;;;;;;;;;4475753;28;20085;-60
2021/09/14 07:42:42;;;;;;;2.63;2.00;;;;;;;;;;4475615;28;20043;-60
2021/09/14 07:44:54;;;;;;;3.23;2.20;;;;;;;;;;4475448;28;20038;-61
2021/09/14 07:47:05;;;;;;;3.28;2.13;;;;;;;;;;4475411;28;20150;-61
2021/09/14 07:49:15;;;;;;;2.53;2.00;;;;;;;;;;4474639;28;20031;-61
2021/09/14 07:51:26;;;;;;;3.27;2.23;;;;;;;;;;4473865;28;20456;-60
2021/09/14 07:53:36;;;;;;;3.13;2.30;;;;;;;;;;4476025;28;20049;-60
2021/09/14 07:55:47;;;;;;;2.60;2.03;;;;;;;;;;4474421;28;20036;-61
2021/09/14 07:57:57;;;;;;;2.60;2.30;;;;;;;;;;4474798;28;27218;-62
2021/09/14 08:00:08;;;;;;;4.30;2.77;;;;;;;;;;4460955;28;20153;-62
2021/09/14 08:02:25;;;;;;;3.13;2.28;;;;;;;;;;4474711;28;20149;-62
2021/09/14 08:04:36;;;;;;;2.13;1.92;;;;;;;;;;4473434;28;20042;-62
2021/09/14 08:06:46;;;;;;;2.88;2.22;;;;;;;;;;4475654;28;20483;-62
2021/09/14 08:08:57;;;;;;;2.87;2.17;;;;;;;;;;4475186;28;20077;-62
2021/09/14 08:11:07;;;;;;;3.30;2.30;;;;;;;;;;4474923;28;20030;-62
2021/09/14 08:13:19;;;;;;;2.25;1.92;;;;;;;;;;4474554;28;20029;-62
2021/09/14 08:15:29;;;;;;;2.67;2.13;;;;;;;;;;4473471;28;20513;-62
2021/09/14 08:17:40;;;;;;;2.50;2.00;;;;;;;;;;4464602;28;20043;-62
2021/09/14 08:19:50;;;;;;;3.03;2.20;;;;;;;;;;4460111;28;21096;-62
2021/09/14 08:22:01;;;;;;;4.90;2.33;;;;;;;;;;4478982;28;20097;-62
2021/09/14 08:24:12;;;;;;;2.83;2.20;;;;;;;;;;4479041;28;20038;-61
2021/09/14 08:26:23;;;;;;;2.40;2.08;;;;;;;;;;4478923;28;20045;-62
2021/09/14 08:28:34;;;;;;;4.00;2.10;;;;;;;;;;4477347;28;20092;-62
2021/09/14 08:30:56;;;;;;;2.72;2.13;;;;;;;;;;4475919;28;20081;-62
2021/09/14 08:33:07;;;;;;;3.60;2.23;;;;;;;;;;4476761;28;20043;-61
2021/09/14 08:35:18;;;;;;;2.70;2.33;;;;;;;;;;4477155;28;21212;-62
2021/09/14 08:37:28;;;;;;;4.28;2.25;;;;;;;;;;4478398;28;20962;-61
2021/09/14 08:39:39;;;;;;;3.23;2.20;;;;;;;;;;4476862;28;20043;-62
2021/09/14 08:41:50;;;;;;;3.30;1.90;;;;;;;;;;4467710;28;20554;-62
2021/09/14 08:44:01;;;;;;;2.97;2.03;;;;;;;;;;4478593;28;20039;-61
2021/09/14 08:46:13;;;;;;;3.10;2.23;;;;;;;;;;4478619;28;20088;-62
2021/09/14 08:48:24;;;;;;;2.63;2.20;;;;;;;;;;4477749;28;20041;-62
2021/09/14 08:50:35;;;;;;;2.90;2.10;;;;;;;;;;4477879;28;20061;-62
2021/09/14 08:52:45;;;;;;;2.30;2.10;;;;;;;;;;4478158;28;20036;-61
2021/09/14 08:54:56;;;;;;;2.27;1.87;;;;;;;;;;4477804;28;20145;-62
2021/09/14 08:57:06;;;;;;;3.40;2.43;;;;;;;;;;4479296;28;20038;-62
2021/09/14 08:59:31;;;;;;;2.93;2.43;;;;;;;;;;4478505;28;20117;-62
2021/09/14 09:01:41;;;;;;;2.63;2.00;;;;;;;;;;4468577;28;20027;-62
2021/09/14 09:04:05;;;;;;;2.43;2.03;;;;;;;;;;4476494;28;20040;-62
2021/09/14 09:06:16;;;;;;;4.30;2.20;;;;;;;;;;4477563;28;20618;-62
2021/09/14 09:08:37;;;;;;;2.53;1.80;;;;;;;;;;4478251;28;20027;-62
2021/09/14 09:11:05;;;;;;;2.25;1.85;;;;;;;;;;4475730;28;20030;-62
2021/09/14 09:13:16;;;;;;;3.90;1.90;;;;;;;;;;4476324;28;20045;-62
2021/09/14 09:15:33;;;;;;;2.93;2.20;;;;;;;;;;4464048;28;20618;-62
2021/09/14 09:17:45;;;;;;;2.95;1.77;;;;;;;;;;4477215;28;21084;-62
2021/09/14 09:20:06;;;;;;;2.00;1.70;;;;;;;;;;4463189;28;20050;-62
2021/09/14 09:22:16;;;;;;;2.97;2.33;;;;;;;;;;4460232;28;20126;-62
2021/09/14 09:24:27;;;;;;;2.70;2.00;;;;;;;;;;4476790;28;20035;-62
2021/09/14 09:26:42;;;;;;;3.07;2.00;;;;;;;;;;4476903;28;26100;-62
2021/09/14 09:28:57;;;;;;;3.47;2.10;;;;;;;;;;4462598;28;20047;-62
2021/09/14 09:31:11;;;;;;;3.17;1.95;;;;;;;;;;4474442;28;20041;-62
2021/09/14 09:33:30;;;;;;;2.00;1.80;;;;;;;;;;4463413;28;20089;-62
2021/09/14 09:35:40;;;;;;;3.22;1.80;;;;;;;;;;4478213;28;20117;-62
2021/09/14 09:37:52;;;;;;;2.57;1.70;;;;;;;;;;4461225;28;20030;-62
2021/09/14 09:40:03;;;;;;;4.30;2.10;;;;;;;;;;4476259;28;20038;-62
2021/09/14 09:42:14;;;;;;;2.90;1.90;;;;;;;;;;4475789;28;20395;-62
2021/09/14 09:44:25;;;;;;;2.00;1.70;;;;;;;;;;4475577;28;20059;-62
2021/09/14 09:46:35;;;;;;;2.93;1.90;;;;;;;;;;4476767;28;20153;-62
2021/09/14 09:48:47;;;;;;;2.23;1.87;;;;;;;;;;4475181;28;20883;-62
2021/09/14 09:50:57;;;;;;;2.42;1.90;;;;;;;;;;4477245;28;20271;-62
2021/09/14 09:53:09;;;;;;;2.73;2.00;;;;;;;;;;4477424;28;20093;-62
2021/09/14 09:55:20;;;;;;;2.50;1.80;;;;;;;;;;4476455;28;20838;-62
2021/09/14 09:57:31;;;;;;;2.22;1.70;;;;;;;;;;4468459;28;20050;-62
2021/09/14 09:59:42;;;;;;;2.10;1.70;;;;;;;;;;4476989;28;20050;-62
2021/09/14 10:02:13;;;;;;;2.30;1.87;;;;;;;;;;4475381;28;20066;-63
2021/09/14 10:04:24;;;;;;;2.10;1.90;;;;;;;;;;4475786;28;20053;-62
2021/09/14 10:06:40;;;;;;;2.22;1.70;;;;;;;;;;4473922;28;20054;-62
2021/09/14 10:08:53;;;;;;;2.10;1.60;;;;;;;;;;4476611;28;20035;-62
2021/09/14 10:11:04;;;;;;;3.25;2.03;;;;;;;;;;4476031;28;20121;-62
2021/09/14 10:13:14;;;;;;;1.97;1.73;;;;;;;;;;4476531;28;20089;-62
2021/09/14 10:15:39;;;;;;;2.63;1.80;;;;;;;;;;4474960;28;20038;-62
2021/09/14 10:17:55;;;;;;;2.15;1.77;;;;;;;;;;4475772;28;20046;-62
2021/09/14 10:20:10;;;;;;;1.73;1.58;;;;;;;;;;4476357;28;20578;-62
2021/09/14 10:22:28;;;;;;;2.00;1.60;;;;;;;;;;4458156;28;20987;-62
2021/09/14 10:24:49;;;;;;;1.60;1.50;;;;;;;;;;4476243;28;20149;-62
2021/09/14 10:27:08;;;;;;;1.83;1.57;;;;;;;;;;4475193;28;20184;-62
2021/09/14 10:29:19;;;;;;;2.83;1.67;;;;;;;;;;4460034;28;20042;-62
2021/09/14 10:31:32;;;;;;;2.07;1.50;;;;;;;;;;4476094;28;20035;-62
2021/09/14 10:33:42;;;;;;;2.55;1.50;;;;;;;;;;4474041;28;20665;-62
2021/09/14 10:35:54;;;;;;;2.13;1.70;;;;;;;;;;4475555;28;20065;-62
2021/09/14 10:38:09;;;;;;;2.20;1.70;;;;;;;;;;4474952;28;20121;-62
2021/09/14 10:40:20;;;;;;;1.92;1.60;;;;;;;;;;4473188;28;20035;-63
2021/09/14 10:42:34;;;;;;;1.90;1.60;;;;;;;;;;4473141;28;20190;-63
2021/09/14 10:44:46;;;;;;;3.13;1.70;;;;;;;;;;4477207;28;20038;-63
2021/09/14 10:47:04;;;;;;;2.67;1.70;;;;;;;;;;4471834;28;20030;-63
2021/09/14 10:49:15;;;;;;;2.10;1.55;;;;;;;;;;4458893;28;20039;-62
2021/09/14 10:51:26;;;;;;;1.88;1.67;;;;;;;;;;4460798;28;20031;-63
2021/09/14 10:53:36;;;;;;;1.60;1.50;;;;;;;;;;4475694;28;20121;-62
2021/09/14 10:55:56;;;;;;;1.70;1.60;;;;;;;;;;4474560;28;20097;-63
2021/09/14 10:58:06;;;;;;;4.35;2.00;;;;;;;;;;4473673;28;20772;-65
2021/09/14 11:00:18;;;;;;;1.70;1.60;;;;;;;;;;4475198;28;20038;-62
2021/09/14 11:02:28;;;;;;;2.08;1.67;;;;;;;;;;4475072;28;20039;-63
2021/09/14 11:04:41;;;;;;;1.63;1.40;;;;;;;;;;4475398;28;20062;-63
2021/09/14 11:06:52;;;;;;;2.20;1.60;;;;;;;;;;4473503;28;20077;-62
2021/09/14 11:09:05;;;;;;;2.63;1.60;;;;;;;;;;4474424;28;20125;-63
2021/09/14 11:11:17;;;;;;;2.00;1.70;;;;;;;;;;4466278;28;20093;-62
2021/09/14 11:13:29;;;;;;;1.63;1.50;;;;;;;;;;4474385;28;20062;-63
2021/09/14 11:15:40;;;;;;;2.13;1.60;;;;;;;;;;4472032;28;20042;-63
2021/09/14 11:17:50;;;;;;;1.60;1.50;;;;;;;;;;4476087;28;20031;-62
2021/09/14 11:20:11;;;;;;;1.80;1.60;;;;;;;;;;4475737;28;20443;-63
2021/09/14 11:22:34;;;;;;;2.53;1.60;;;;;;;;;;4474731;28;20084;-63
2021/09/14 11:24:51;;;;;;;2.97;1.77;;;;;;;;;;4473820;28;21493;-62
2021/09/14 11:27:01;;;;;;;2.60;2.05;;;;;;;;;;4475564;28;20039;-63
2021/09/14 11:29:12;;;;;;;1.77;1.60;;;;;;;;;;4475179;28;20043;-62
2021/09/14 11:31:23;;;;;;;2.23;1.60;;;;;;;;;;4462603;28;20045;-63
2021/09/14 11:33:33;;;;;;;2.13;1.63;;;;;;;;;;4474985;28;20039;-62
2021/09/14 11:35:44;;;;;;;1.98;1.58;;;;;;;;;;4465892;28;20102;-62
2021/09/14 11:38:07;;;;;;;3.13;1.77;;;;;;;;;;4473628;28;21915;-63
2021/09/14 11:40:18;;;;;;;3.05;1.90;;;;;;;;;;4473725;28;20078;-63
2021/09/14 11:42:31;;;;;;;2.00;1.55;;;;;;;;;;4461913;28;20121;-62
2021/09/14 11:44:42;;;;;;;2.22;1.77;;;;;;;;;;4475381;28;20039;-63
2021/09/14 11:46:53;;;;;;;;;;;;;;;;;;4474566;28;20481;-63
2021/09/14 11:49:05;;;;;;;1.80;1.65;;;;;;;;;;4474361;28;19962;-62
2021/09/14 11:51:15;;;;;;;2.42;1.73;;;;;;;;;;4473231;28;20043;-63
2021/09/14 11:53:26;;;;;;;2.20;1.57;;;;;;;;;;4466645;28;20047;-62
2021/09/14 11:55:41;;;;;;;2.37;1.90;;;;;;;;;;4477685;28;20035;-63
2021/09/14 11:57:56;;;;;;;1.90;1.70;;;;;;;;;;4476764;28;20054;-63
2021/09/14 12:00:13;;;;;;;2.35;1.73;;;;;;;;;;4478505;28;20066;-62
2021/09/14 12:02:23;;;;;;;2.58;1.63;;;;;;;;;;4473499;28;20031;-62
2021/09/14 12:04:34;;;;;;;2.00;1.80;;;;;;;;;;4475651;28;20034;-63
2021/09/14 12:06:52;;;;;;;2.73;1.60;;;;;;;;;;4463327;28;20051;-63
2021/09/14 12:09:09;;;;;;;1.88;1.70;;;;;;;;;;4476573;28;20992;-63
2021/09/14 12:11:28;;;;;;;2.30;1.88;;;;;;;;;;4478119;28;20048;-63
2021/09/14 12:13:43;;;;;;;2.00;1.80;;;;;;;;;;4469422;28;20031;-62
2021/09/14 12:16:04;;;;;;;2.08;1.80;;;;;;;;;;4478074;28;20030;-63
2021/09/14 12:18:16;;;;;;;1.67;1.55;;;;;;;;;;4477125;28;20138;-63
2021/09/14 12:20:26;;;;;;;;;;;;;;;;;;4476838;28;20043;-63
2021/09/14 12:22:37;;;;;;;2.20;1.70;;;;;;;;;;4477248;28;19922;-63
2021/09/14 12:24:47;;;;;;;2.00;1.80;;;;;;;;;;4475713;28;20034;-62
2021/09/14 12:26:59;;;;;;;2.07;1.80;;;;;;;;;;4477669;28;20042;-62
2021/09/14 12:29:10;;;;;;;;;;;;;;;;;;4463295;28;20070;-63
2021/09/14 12:31:21;;;;;;;2.27;1.70;;;;;;;;;;4477439;28;19925;-63
2021/09/14 12:33:32;;;;;;;2.78;1.80;;;;;;;;;;4478726;28;20038;-62
2021/09/14 12:35:44;;;;;;;2.50;1.90;;;;;;;;;;4478279;28;20571;-63
2021/09/14 12:37:54;;;;;;;1.85;1.58;;;;;;;;;;4474324;28;20656;-63
2021/09/14 12:40:05;;;;;;;2.53;1.80;;;;;;;;;;4477212;28;20035;-63
2021/09/14 12:42:15;;;;;;;2.58;1.92;;;;;;;;;;4475043;28;20464;-63
2021/09/14 12:44:26;;;;;;;2.23;2.00;;;;;;;;;;4475261;28;22417;-63
2021/09/14 12:46:36;;;;;;;1.93;1.70;;;;;;;;;;4459020;28;20049;-63
2021/09/14 12:48:47;;;;;;;2.43;1.80;;;;;;;;;;4477473;28;20046;-62
2021/09/14 12:50:57;;;;;;;2.13;1.70;;;;;;;;;;4476134;28;20096;-63
2021/09/14 12:53:08;;;;;;;2.37;1.87;;;;;;;;;;4476899;28;20534;-62
2021/09/14 12:55:18;;;;;;;2.07;1.87;;;;;;;;;;4477059;28;20694;-63
2021/09/14 12:57:29;;;;;;;2.07;1.87;;;;;;;;;;4476534;28;20071;-64
2021/09/14 12:59:39;;;;;;;2.87;2.10;;;;;;;;;;4477162;28;20089;-63
2021/09/14 13:01:50;;;;;;;2.47;1.80;;;;;;;;;;4477686;28;20125;-63
2021/09/14 13:04:00;;;;;;;2.27;1.60;;;;;;;;;;4476453;28;20042;-63
2021/09/14 13:06:11;;;;;;;2.53;1.70;;;;;;;;;;4476307;28;20088;-63
2021/09/14 13:08:22;;;;;;;1.70;1.60;;;;;;;;;;4475255;28;20035;-62
2021/09/14 13:10:33;;;;;;;2.17;1.70;;;;;;;;;;4478083;28;20066;-63
2021/09/14 13:12:48;;;;;;;2.13;1.83;;;;;;;;;;4459396;28;20574;-63
2021/09/14 13:17:27;;;;;;;2.83;1.90;;;;;;;;;;4477737;28;20045;-63
2021/09/14 13:19:38;;;;;;;1.70;1.60;;;;;;;;;;4476481;28;20418;-60
2021/09/14 13:21:48;;;;;;;2.10;1.70;;;;;;;;;;4478275;28;20030;-61
2021/09/14 13:23:59;;;;;;;2.40;1.90;;;;;;;;;;4476708;28;20031;-60
2021/09/14 13:26:10;;;;;;;1.93;1.80;;;;;;;;;;4477351;28;20145;-60
2021/09/14 13:28:20;;;;;;;2.33;1.98;;;;;;;;;;4460343;28;20044;-60
2021/09/14 13:30:31;;;;;;;2.40;1.90;;;;;;;;;;4476073;28;20044;-60
2021/09/14 13:32:41;;;;;;;1.80;1.70;;;;;;;;;;4476801;28;20498;-60
2021/09/14 13:34:52;;;;;;;2.17;1.70;;;;;;;;;;4478386;28;20208;-60
2021/09/14 13:37:02;;;;;;;2.37;1.97;;;;;;;;;;4476474;28;20503;-60
2021/09/14 13:39:12;;;;;;;3.70;1.93;;;;;;;;;;4478156;28;20574;-60
2021/09/14 13:41:31;;;;;;;2.57;1.90;;;;;;;;;;4476832;28;20038;-60
2021/09/14 13:46:14;;;;;;;2.20;1.90;;;;;;;;;;4461163;28;20038;-60
2021/09/14 13:48:25;;;;;;;2.25;1.88;;;;;;;;;;4477183;28;20846;-60
2021/09/14 13:50:37;;;;;;;1.90;1.65;;;;;;;;;;4459992;28;20039;-61
2021/09/14 13:52:47;;;;;;;2.22;2.03;;;;;;;;;;4462646;28;20059;-60
2021/09/14 13:54:58;;;;;;;2.97;1.73;;;;;;;;;;4476325;28;20039;-61
2021/09/14 13:57:08;;;;;;;2.10;1.90;;;;;;;;;;4475470;28;20097;-60
2021/09/14 13:59:18;;;;;;;2.57;2.00;;;;;;;;;;4477726;28;20097;-61
2021/09/14 14:01:29;;;;;;;3.00;1.73;;;;;;;;;;4477924;28;20041;-60
2021/09/14 14:03:40;;;;;;;2.63;2.07;;;;;;;;;;4476856;28;20693;-60
2021/09/14 14:05:51;;;;;;;2.35;1.75;;;;;;;;;;4458487;28;20042;-60
2021/09/14 14:08:01;;;;;;;1.77;1.63;;;;;;;;;;4476963;28;20122;-61
2021/09/14 14:10:12;;;;;;;3.03;2.03;;;;;;;;;;4475885;28;20042;-60
2021/09/14 14:12:22;;;;;;;2.50;2.13;;;;;;;;;;4476789;28;20592;-60
2021/09/14 14:14:32;;;;;;;2.93;2.10;;;;;;;;;;4462669;28;20479;-61
2021/09/14 14:16:43;;;;;;;2.93;1.80;;;;;;;;;;4475599;28;20052;-60
2021/09/14 14:18:53;;;;;;;2.00;1.80;;;;;;;;;;4474873;28;20460;-61